Time;durP1;ratioP1;P1;durP2;ratioP2;P2;SDS_P1;SDS_P2;PMS_P1;PMS_P2;Temp;Humidity;BMP_temperature;BMP_pressure;BME280_temperature;BME280_humidity;BME280_pressure;Samples;Min_cycle;Max_cycle;Signal;HPM_P1;HPM_P2
2023/08/05 00:01:06;;;;;;;7.07;3.20;;;;;;;;;;4970235;28;20696;-61
2023/08/05 00:03:31;;;;;;;8.32;3.55;;;;;;;;;;4969866;28;20308;-60
2023/08/05 00:05:56;;;;;;;7.55;3.30;;;;;;;;;;4970442;28;20217;-60
2023/08/05 00:08:21;;;;;;;9.15;3.20;;;;;;;;;;4969944;28;20585;-60
2023/08/05 00:10:47;;;;;;;6.57;3.55;;;;;;;;;;4970729;28;20260;-60
2023/08/05 00:13:12;;;;;;;9.07;3.75;;;;;;;;;;4969210;28;20588;-60
2023/08/05 00:15:38;;;;;;;12.32;3.75;;;;;;;;;;4970239;28;20233;-60
2023/08/05 00:18:03;;;;;;;8.20;3.38;;;;;;;;;;4970682;28;20684;-61
2023/08/05 00:20:28;;;;;;;6.78;3.13;;;;;;;;;;4973396;28;20217;-60
2023/08/05 00:22:54;;;;;;;7.55;3.30;;;;;;;;;;4972674;28;20245;-60
2023/08/05 00:25:19;;;;;;;10.48;3.20;;;;;;;;;;4973400;28;20596;-60
2023/08/05 00:27:44;;;;;;;7.45;3.35;;;;;;;;;;4973571;28;20214;-60
2023/08/05 00:30:10;;;;;;;7.68;3.53;;;;;;;;;;4972310;28;20275;-60
2023/08/05 00:32:36;;;;;;;5.43;3.05;;;;;;;;;;4973593;28;20228;-60
2023/08/05 00:35:03;;;;;;;9.57;3.40;;;;;;;;;;4972383;28;20217;-61
2023/08/05 00:37:28;;;;;;;7.75;3.08;;;;;;;;;;4973001;28;20242;-60
2023/08/05 00:39:53;;;;;;;9.23;3.65;;;;;;;;;;4973268;28;20280;-60
2023/08/05 00:42:19;;;;;;;9.07;3.58;;;;;;;;;;4972100;28;20214;-60
2023/08/05 00:44:45;;;;;;;9.48;3.03;;;;;;;;;;4988689;28;20213;-61
2023/08/05 00:47:11;;;;;;;8.55;3.17;;;;;;;;;;4985562;28;20293;-60
2023/08/05 00:49:36;;;;;;;7.82;3.30;;;;;;;;;;4972479;28;20713;-61
2023/08/05 00:52:01;;;;;;;6.07;3.00;;;;;;;;;;4972633;28;20224;-60
2023/08/05 00:54:28;;;;;;;7.85;3.50;;;;;;;;;;4973003;28;20222;-60
2023/08/05 00:56:53;;;;;;;8.80;3.25;;;;;;;;;;4972415;28;20249;-60
2023/08/05 00:59:19;;;;;;;10.05;3.38;;;;;;;;;;4972620;28;20682;-60
2023/08/05 01:01:44;;;;;;;6.95;3.50;;;;;;;;;;4973035;28;20689;-60
2023/08/05 01:04:09;;;;;;;8.63;3.38;;;;;;;;;;4972054;28;20217;-60
2023/08/05 01:06:34;;;;;;;8.32;3.35;;;;;;;;;;4972977;28;20557;-60
2023/08/05 01:09:00;;;;;;;6.43;3.05;;;;;;;;;;4972498;28;20222;-60
2023/08/05 01:11:25;;;;;;;7.25;3.40;;;;;;;;;;4971829;28;20205;-60
2023/08/05 01:13:50;;;;;;;7.28;3.50;;;;;;;;;;4972056;28;20221;-60
2023/08/05 01:16:16;;;;;;;8.80;3.40;;;;;;;;;;4968255;28;20202;-60
2023/08/05 01:18:41;;;;;;;7.80;3.40;;;;;;;;;;4969910;28;20727;-60
2023/08/05 01:21:18;;;;;;;8.43;3.60;;;;;;;;;;4968762;28;20257;-60
2023/08/05 01:23:49;;;;;;;9.23;3.92;;;;;;;;;;4966570;28;20260;-60
2023/08/05 01:26:14;;;;;;;7.88;3.20;;;;;;;;;;4968447;28;20217;-60
2023/08/05 01:28:39;;;;;;;7.50;3.38;;;;;;;;;;4984675;28;20233;-60
2023/08/05 01:31:05;;;;;;;8.13;3.60;;;;;;;;;;4967643;28;20684;-60
2023/08/05 01:33:30;;;;;;;9.55;3.67;;;;;;;;;;4968432;28;20264;-60
2023/08/05 01:35:55;;;;;;;7.47;3.70;;;;;;;;;;4968638;28;20217;-60
2023/08/05 01:38:21;;;;;;;6.93;3.35;;;;;;;;;;4967526;28;20214;-60
2023/08/05 01:40:46;;;;;;;6.80;3.38;;;;;;;;;;4968310;28;20269;-60
2023/08/05 01:43:11;;;;;;;9.95;3.58;;;;;;;;;;4968675;28;20759;-60
2023/08/05 01:45:37;;;;;;;8.85;3.90;;;;;;;;;;4969306;28;20218;-60
2023/08/05 01:48:02;;;;;;;8.10;3.60;;;;;;;;;;4966750;28;20223;-60
2023/08/05 01:50:27;;;;;;;7.03;3.35;;;;;;;;;;4968456;28;20226;-60
2023/08/05 01:52:53;;;;;;;6.10;3.55;;;;;;;;;;4968907;28;20723;-60
2023/08/05 01:55:19;;;;;;;6.00;3.30;;;;;;;;;;4967372;28;20221;-60
2023/08/05 01:57:44;;;;;;;7.05;3.35;;;;;;;;;;4968326;28;20237;-60
2023/08/05 02:00:10;;;;;;;8.43;3.72;;;;;;;;;;4968684;28;20254;-61
2023/08/05 02:02:35;;;;;;;6.93;3.33;;;;;;;;;;4968814;28;20229;-60
2023/08/05 02:05:01;;;;;;;9.05;3.22;;;;;;;;;;4967261;28;20256;-60
2023/08/05 02:07:26;;;;;;;7.25;3.70;;;;;;;;;;4969088;28;20216;-60
2023/08/05 02:09:51;;;;;;;9.43;3.65;;;;;;;;;;4969015;28;20265;-60
2023/08/05 02:12:17;;;;;;;7.10;3.25;;;;;;;;;;4966270;28;20224;-60
2023/08/05 02:14:42;;;;;;;8.02;3.42;;;;;;;;;;4968799;28;20237;-61
2023/08/05 02:17:07;;;;;;;6.70;3.10;;;;;;;;;;4964481;28;20222;-60
2023/08/05 02:19:32;;;;;;;8.52;3.42;;;;;;;;;;4949172;28;21289;-60
2023/08/05 02:21:58;;;;;;;9.57;3.55;;;;;;;;;;4947793;28;21095;-60
2023/08/05 02:24:23;;;;;;;8.68;3.33;;;;;;;;;;4946968;28;20688;-60
2023/08/05 02:26:49;;;;;;;8.50;3.65;;;;;;;;;;4947847;28;20222;-60
2023/08/05 02:29:14;;;;;;;9.32;3.45;;;;;;;;;;4945315;28;20759;-60
2023/08/05 02:31:39;;;;;;;7.95;3.53;;;;;;;;;;4938895;28;20215;-60
2023/08/05 02:34:04;;;;;;;11.75;3.10;;;;;;;;;;4938610;28;20218;-60
2023/08/05 02:36:30;;;;;;;6.25;3.28;;;;;;;;;;4945352;28;20205;-60
2023/08/05 02:38:55;;;;;;;9.40;3.53;;;;;;;;;;4946025;28;20222;-60
2023/08/05 02:41:20;;;;;;;8.48;3.45;;;;;;;;;;4946418;28;20214;-61
2023/08/05 02:43:46;;;;;;;9.02;3.40;;;;;;;;;;4947223;28;20214;-60
2023/08/05 02:46:11;;;;;;;9.35;3.80;;;;;;;;;;4948839;28;20218;-61
2023/08/05 02:48:36;;;;;;;7.75;3.10;;;;;;;;;;4961647;28;20233;-61
2023/08/05 02:51:02;;;;;;;8.18;3.28;;;;;;;;;;4946517;28;20226;-61
2023/08/05 02:53:28;;;;;;;8.20;3.53;;;;;;;;;;4942301;28;20210;-61
2023/08/05 02:55:53;;;;;;;6.03;3.50;;;;;;;;;;4939719;28;20249;-61
2023/08/05 02:58:19;;;;;;;8.15;3.40;;;;;;;;;;4939923;28;20223;-61
2023/08/05 03:00:46;;;;;;;8.38;3.30;;;;;;;;;;4950035;28;20225;-61
2023/08/05 03:03:11;;;;;;;9.43;3.40;;;;;;;;;;4954212;28;20219;-61
2023/08/05 03:05:37;;;;;;;7.70;3.20;;;;;;;;;;4950062;28;20224;-61
2023/08/05 03:08:02;;;;;;;9.80;3.67;;;;;;;;;;4950323;28;20282;-61
2023/08/05 03:10:27;;;;;;;7.95;3.00;;;;;;;;;;4950380;28;20284;-61
2023/08/05 03:12:53;;;;;;;7.55;3.40;;;;;;;;;;4950622;28;20975;-61
2023/08/05 03:15:18;;;;;;;8.35;3.42;;;;;;;;;;4943840;28;20721;-60
2023/08/05 03:17:43;;;;;;;9.40;3.30;;;;;;;;;;4945286;28;20221;-61
2023/08/05 03:20:29;;;;;;;8.68;3.35;;;;;;;;;;4942098;28;20226;-61
2023/08/05 03:22:54;;;;;;;10.38;3.38;;;;;;;;;;4958878;28;20220;-61
2023/08/05 03:25:23;;;;;;;7.82;3.10;;;;;;;;;;4950474;28;20230;-60
2023/08/05 03:27:49;;;;;;;7.45;3.80;;;;;;;;;;4951568;28;20242;-61
2023/08/05 03:30:14;;;;;;;6.30;3.03;;;;;;;;;;4950114;28;21702;-61
2023/08/05 03:32:39;;;;;;;10.43;3.80;;;;;;;;;;4949611;28;20215;-61
2023/08/05 03:35:05;;;;;;;7.75;3.65;;;;;;;;;;4949943;28;20228;-61
2023/08/05 03:37:30;;;;;;;8.48;3.40;;;;;;;;;;4943999;28;20280;-61
2023/08/05 03:39:55;;;;;;;8.82;3.15;;;;;;;;;;4941566;28;20214;-61
2023/08/05 03:42:21;;;;;;;7.72;3.33;;;;;;;;;;4942080;28;20264;-61
2023/08/05 03:44:46;;;;;;;6.57;3.30;;;;;;;;;;4947888;28;20753;-61
2023/08/05 03:47:11;;;;;;;10.30;3.65;;;;;;;;;;4948944;28;20269;-61
2023/08/05 03:49:38;;;;;;;10.00;3.90;;;;;;;;;;4948269;28;20242;-61
2023/08/05 03:52:03;;;;;;;7.80;3.83;;;;;;;;;;4949551;28;20224;-61
2023/08/05 03:54:29;;;;;;;8.88;3.75;;;;;;;;;;4950087;28;20648;-61
2023/08/05 03:56:54;;;;;;;9.52;3.22;;;;;;;;;;4949584;28;20357;-61
2023/08/05 03:59:20;;;;;;;7.68;3.45;;;;;;;;;;4947190;28;20222;-61
2023/08/05 04:01:45;;;;;;;9.73;3.63;;;;;;;;;;4938055;28;20313;-61
2023/08/05 04:04:11;;;;;;;7.70;3.35;;;;;;;;;;4941279;28;20571;-61
2023/08/05 04:06:36;;;;;;;10.20;3.42;;;;;;;;;;4942871;28;20213;-62
2023/08/05 04:09:01;;;;;;;19.35;4.38;;;;;;;;;;4950842;28;20242;-60
2023/08/05 04:11:27;;;;;;;8.88;3.72;;;;;;;;;;4949756;28;20693;-61
2023/08/05 04:13:55;;;;;;;8.60;3.40;;;;;;;;;;4948108;28;20748;-60
2023/08/05 04:16:22;;;;;;;6.32;3.30;;;;;;;;;;4949508;28;20222;-61
2023/08/05 04:18:48;;;;;;;9.00;3.55;;;;;;;;;;4949809;28;20233;-61
2023/08/05 04:21:14;;;;;;;9.00;3.63;;;;;;;;;;4946671;28;21117;-60
2023/08/05 04:23:41;;;;;;;8.25;3.35;;;;;;;;;;4940640;28;20225;-61
2023/08/05 04:26:07;;;;;;;5.85;3.40;;;;;;;;;;4942582;28;20253;-60
2023/08/05 04:28:32;;;;;;;8.85;3.38;;;;;;;;;;4942438;28;21060;-60
2023/08/05 04:30:58;;;;;;;10.30;3.60;;;;;;;;;;4948619;28;20210;-60
2023/08/05 04:33:26;;;;;;;7.68;3.45;;;;;;;;;;4949763;28;20222;-61
2023/08/05 04:35:52;;;;;;;8.38;3.70;;;;;;;;;;4949749;28;20245;-60
2023/08/05 04:38:17;;;;;;;7.05;3.78;;;;;;;;;;4947470;28;20403;-61
2023/08/05 04:40:43;;;;;;;8.93;3.70;;;;;;;;;;4949831;28;20218;-61
2023/08/05 04:43:08;;;;;;;7.43;3.42;;;;;;;;;;4948755;28;20249;-60
2023/08/05 04:45:36;;;;;;;10.02;4.28;;;;;;;;;;4943602;28;20751;-60
2023/08/05 04:48:03;;;;;;;39.85;6.13;;;;;;;;;;4940489;28;20244;-60
2023/08/05 04:50:28;;;;;;;11.80;4.20;;;;;;;;;;4937898;28;20796;-61
2023/08/05 04:52:54;;;;;;;8.73;3.95;;;;;;;;;;4942565;28;20219;-61
2023/08/05 04:55:19;;;;;;;9.52;4.00;;;;;;;;;;4949899;28;20234;-61
2023/08/05 04:57:45;;;;;;;11.00;4.80;;;;;;;;;;4947630;28;20233;-61
2023/08/05 05:00:10;;;;;;;17.92;4.55;;;;;;;;;;4946860;28;20704;-61
2023/08/05 05:02:39;;;;;;;12.57;3.60;;;;;;;;;;4948809;28;20234;-60
2023/08/05 05:05:04;;;;;;;24.38;5.65;;;;;;;;;;4948058;28;20224;-60
2023/08/05 05:07:29;;;;;;;6.40;3.80;;;;;;;;;;4942198;28;20214;-60
2023/08/05 05:09:55;;;;;;;8.85;4.05;;;;;;;;;;4942246;28;20226;-60
2023/08/05 05:12:20;;;;;;;10.93;4.32;;;;;;;;;;4940203;28;20772;-60
2023/08/05 05:14:46;;;;;;;12.88;4.38;;;;;;;;;;4943161;28;20221;-60
2023/08/05 05:17:15;;;;;;;8.43;3.83;;;;;;;;;;4947417;28;20245;-60
2023/08/05 05:19:41;;;;;;;10.02;4.30;;;;;;;;;;4950403;28;20232;-60
2023/08/05 05:22:06;;;;;;;8.43;4.20;;;;;;;;;;4946290;28;20206;-61
2023/08/05 05:24:31;;;;;;;11.90;3.95;;;;;;;;;;4947935;28;20215;-60
2023/08/05 05:26:57;;;;;;;8.48;4.07;;;;;;;;;;4950252;28;20249;-60
2023/08/05 05:29:22;;;;;;;8.18;5.03;;;;;;;;;;4946321;28;20233;-60
2023/08/05 05:31:48;;;;;;;7.47;4.80;;;;;;;;;;4939638;28;20207;-60
2023/08/05 05:34:13;;;;;;;8.35;4.45;;;;;;;;;;4939651;28;20231;-61
2023/08/05 05:36:38;;;;;;;13.80;5.85;;;;;;;;;;4943184;28;20215;-60
2023/08/05 05:39:04;;;;;;;20.15;6.03;;;;;;;;;;4946537;28;20324;-60
2023/08/05 05:41:29;;;;;;;9.40;5.20;;;;;;;;;;4949366;28;20220;-60
2023/08/05 05:43:55;;;;;;;13.32;5.82;;;;;;;;;;4965268;28;20312;-60
2023/08/05 05:46:21;;;;;;;8.48;4.97;;;;;;;;;;4966441;28;20222;-60
2023/08/05 05:48:46;;;;;;;13.05;6.80;;;;;;;;;;4967801;28;20561;-59
2023/08/05 05:51:11;;;;;;;12.43;7.17;;;;;;;;;;4966293;28;20445;-60
2023/08/05 05:53:37;;;;;;;14.63;7.20;;;;;;;;;;4967146;28;20210;-60
2023/08/05 05:56:02;;;;;;;11.35;6.68;;;;;;;;;;4969057;28;20237;-60
2023/08/05 05:58:33;;;;;;;16.52;7.18;;;;;;;;;;4963877;28;20214;-60
2023/08/05 06:01:00;;;;;;;72.57;11.57;;;;;;;;;;4964828;28;20225;-60
2023/08/05 06:03:25;;;;;;;12.57;7.00;;;;;;;;;;4965150;28;20250;-60
2023/08/05 06:05:51;;;;;;;13.43;7.88;;;;;;;;;;4960991;28;20240;-60
2023/08/05 06:11:02;;;;;;;16.27;8.43;;;;;;;;;;5084814;23;20490;-61
2023/08/05 06:13:27;;;;;;;12.88;8.60;;;;;;;;;;5010812;28;21303;-61
2023/08/05 06:15:52;;;;;;;15.63;9.03;;;;;;;;;;4992080;28;20436;-60
2023/08/05 06:18:18;;;;;;;16.27;8.82;;;;;;;;;;5015546;28;20234;-61
2023/08/05 06:20:43;;;;;;;12.80;8.63;;;;;;;;;;5011123;28;20209;-61
2023/08/05 06:23:08;;;;;;;13.13;8.65;;;;;;;;;;5011403;28;20212;-61
2023/08/05 06:25:34;;;;;;;11.82;8.80;;;;;;;;;;5015025;28;20212;-61
2023/08/05 06:27:59;;;;;;;14.60;8.98;;;;;;;;;;5011414;28;20702;-62
2023/08/05 06:30:24;;;;;;;32.45;10.40;;;;;;;;;;5012179;28;20678;-62
2023/08/05 06:32:49;;;;;;;16.30;9.20;;;;;;;;;;5015118;28;20646;-61
2023/08/05 06:35:15;;;;;;;15.80;9.27;;;;;;;;;;5011325;28;20218;-61
2023/08/05 06:37:40;;;;;;;15.95;9.00;;;;;;;;;;5014282;28;20832;-61
2023/08/05 06:40:06;;;;;;;13.77;8.98;;;;;;;;;;5015778;28;20213;-60
2023/08/05 06:42:31;;;;;;;12.73;9.40;;;;;;;;;;5015700;28;20608;-60
2023/08/05 06:44:57;;;;;;;12.20;9.00;;;;;;;;;;5009642;28;20216;-61
2023/08/05 06:47:22;;;;;;;16.52;9.27;;;;;;;;;;5015287;28;20225;-61
2023/08/05 06:49:47;;;;;;;37.43;11.13;;;;;;;;;;5020294;28;20471;-61
2023/08/05 06:52:13;;;;;;;26.48;10.57;;;;;;;;;;5024488;28;20217;-61
2023/08/05 06:54:38;;;;;;;43.72;11.55;;;;;;;;;;5019750;28;20208;-61
2023/08/05 06:57:03;;;;;;;15.82;9.20;;;;;;;;;;5024758;28;20698;-61
2023/08/05 06:59:29;;;;;;;13.75;9.15;;;;;;;;;;5023674;28;20736;-61
2023/08/05 07:01:54;;;;;;;23.55;10.00;;;;;;;;;;5027026;28;20709;-60
2023/08/05 07:04:19;;;;;;;16.23;8.68;;;;;;;;;;5026461;28;20367;-61
2023/08/05 07:06:45;;;;;;;18.90;9.00;;;;;;;;;;5021773;28;20496;-61
2023/08/05 07:09:10;;;;;;;30.20;9.73;;;;;;;;;;5024877;28;20219;-60
2023/08/05 07:11:36;;;;;;;20.33;8.95;;;;;;;;;;5021931;28;20224;-61
2023/08/05 07:14:01;;;;;;;15.98;8.40;;;;;;;;;;5002300;28;20219;-62
2023/08/05 07:16:26;;;;;;;8.82;7.57;;;;;;;;;;4992826;28;20266;-61
2023/08/05 07:18:52;;;;;;;31.05;10.60;;;;;;;;;;5007832;28;20216;-61
2023/08/05 07:21:18;;;;;;;22.90;8.93;;;;;;;;;;5006108;28;20217;-61
2023/08/05 07:23:43;;;;;;;14.15;8.45;;;;;;;;;;5003035;28;20205;-61
2023/08/05 07:26:08;;;;;;;19.17;7.40;;;;;;;;;;5005507;28;20208;-62
2023/08/05 07:28:33;;;;;;;15.68;8.43;;;;;;;;;;4994556;28;20248;-60
2023/08/05 07:31:01;;;;;;;20.48;8.52;;;;;;;;;;4999582;28;20221;-61
2023/08/05 07:33:27;;;;;;;13.30;7.68;;;;;;;;;;5005956;28;20579;-61
2023/08/05 07:35:53;;;;;;;20.02;7.47;;;;;;;;;;5007474;28;20208;-61
2023/08/05 07:38:21;;;;;;;15.27;7.85;;;;;;;;;;5004216;28;20220;-61
2023/08/05 07:40:48;;;;;;;17.27;7.28;;;;;;;;;;5004139;28;20251;-61
2023/08/05 07:43:15;;;;;;;26.90;9.43;;;;;;;;;;5005624;28;20208;-61
2023/08/05 07:45:40;;;;;;;19.35;9.02;;;;;;;;;;5006226;28;20220;-62
2023/08/05 07:48:08;;;;;;;15.73;8.95;;;;;;;;;;4999381;28;20843;-61
2023/08/05 07:50:34;;;;;;;14.65;9.50;;;;;;;;;;5007058;28;20208;-60
2023/08/05 07:52:59;;;;;;;16.05;10.38;;;;;;;;;;5004993;28;20215;-62
2023/08/05 07:55:29;;;;;;;19.15;10.50;;;;;;;;;;5003180;28;20208;-61
2023/08/05 07:57:55;;;;;;;14.18;10.63;;;;;;;;;;5004482;28;20213;-62
2023/08/05 08:00:20;;;;;;;21.52;10.68;;;;;;;;;;5005394;28;20220;-61
2023/08/05 08:02:45;;;;;;;26.63;10.00;;;;;;;;;;4995478;28;20696;-61
2023/08/05 08:05:13;;;;;;;20.90;8.25;;;;;;;;;;4994905;28;20208;-61
2023/08/05 08:07:43;;;;;;;12.45;8.43;;;;;;;;;;4994763;28;20333;-61
2023/08/05 08:10:08;;;;;;;41.92;9.57;;;;;;;;;;4998848;28;20264;-61
2023/08/05 08:12:34;;;;;;;22.83;7.88;;;;;;;;;;5020303;28;20208;-61
2023/08/05 08:14:59;;;;;;;13.15;8.35;;;;;;;;;;5024363;28;20274;-61
2023/08/05 08:17:24;;;;;;;12.35;7.63;;;;;;;;;;5025435;28;20271;-61
2023/08/05 08:19:50;;;;;;;18.10;7.32;;;;;;;;;;5023017;28;20635;-61
2023/08/05 08:22:15;;;;;;;8.32;5.85;;;;;;;;;;4998232;28;20216;-61
2023/08/05 08:24:40;;;;;;;8.40;5.85;;;;;;;;;;5013544;28;20227;-61
2023/08/05 08:27:06;;;;;;;353.95;27.65;;;;;;;;;;5008719;28;20251;-62
2023/08/05 08:29:31;;;;;;;46.92;8.23;;;;;;;;;;5017583;28;20231;-61
2023/08/05 08:31:56;;;;;;;10.75;5.35;;;;;;;;;;5014376;28;20223;-61
2023/08/05 08:34:22;;;;;;;17.27;5.43;;;;;;;;;;5011211;28;20223;-61
2023/08/05 08:36:49;;;;;;;14.40;5.22;;;;;;;;;;5015154;28;20213;-61
2023/08/05 08:39:14;;;;;;;9.20;4.90;;;;;;;;;;5012489;28;20594;-61
2023/08/05 08:41:41;;;;;;;7.07;4.10;;;;;;;;;;5025554;28;20228;-62
2023/08/05 08:44:07;;;;;;;5.95;4.30;;;;;;;;;;5014537;28;20244;-62
2023/08/05 08:46:32;;;;;;;20.50;5.28;;;;;;;;;;5001156;28;20236;-61
2023/08/05 08:48:58;;;;;;;15.65;5.32;;;;;;;;;;5015077;28;20216;-62
2023/08/05 08:51:23;;;;;;;9.38;4.97;;;;;;;;;;5012191;28;20212;-61
2023/08/05 08:53:48;;;;;;;9.77;5.35;;;;;;;;;;5018056;28;20219;-61
2023/08/05 08:56:14;;;;;;;9.32;5.28;;;;;;;;;;5013527;28;20212;-62
2023/08/05 08:58:39;;;;;;;9.30;4.90;;;;;;;;;;5012710;28;20246;-61
2023/08/05 09:01:04;;;;;;;8.13;5.40;;;;;;;;;;5019162;28;20709;-61
2023/08/05 09:03:30;;;;;;;30.30;6.57;;;;;;;;;;5012400;28;20691;-61
2023/08/05 09:05:57;;;;;;;12.48;5.45;;;;;;;;;;5008163;28;20476;-61
2023/08/05 09:08:22;;;;;;;8.00;5.05;;;;;;;;;;5010836;28;20244;-61
2023/08/05 09:10:47;;;;;;;15.27;5.63;;;;;;;;;;5013220;28;20220;-62
2023/08/05 09:13:16;;;;;;;13.93;6.32;;;;;;;;;;5007688;28;20242;-61
2023/08/05 09:15:42;;;;;;;16.02;6.70;;;;;;;;;;5021332;28;20280;-61
2023/08/05 09:18:08;;;;;;;24.40;6.43;;;;;;;;;;5020475;28;20686;-61
2023/08/05 09:20:33;;;;;;;16.70;5.75;;;;;;;;;;5022996;28;20627;-61
2023/08/05 09:23:01;;;;;;;17.48;5.57;;;;;;;;;;5024483;28;20203;-61
2023/08/05 09:25:26;;;;;;;22.15;6.13;;;;;;;;;;5023706;28;20212;-61
2023/08/05 09:27:53;;;;;;;14.35;5.95;;;;;;;;;;5020537;28;20215;-61
2023/08/05 09:30:19;;;;;;;9.90;5.65;;;;;;;;;;5020018;28;20233;-61
2023/08/05 09:32:45;;;;;;;9.18;5.90;;;;;;;;;;5024662;28;20584;-62
2023/08/05 09:35:11;;;;;;;16.23;6.30;;;;;;;;;;5020000;28;20250;-61
2023/08/05 09:37:39;;;;;;;13.38;5.80;;;;;;;;;;5023324;28;20603;-61
2023/08/05 09:40:13;;;;;;;95.13;10.70;;;;;;;;;;5024036;28;20237;-61
2023/08/05 09:42:38;;;;;;;16.70;6.00;;;;;;;;;;5003829;28;20211;-61
2023/08/05 09:45:08;;;;;;;7.43;5.50;;;;;;;;;;5019327;28;20266;-61
2023/08/05 09:47:33;;;;;;;8.73;5.18;;;;;;;;;;5024756;28;20289;-61
2023/08/05 09:49:59;;;;;;;10.35;5.13;;;;;;;;;;4999690;28;20628;-61
2023/08/05 09:52:24;;;;;;;13.73;5.18;;;;;;;;;;5024589;28;20671;-61
2023/08/05 09:54:52;;;;;;;10.05;4.80;;;;;;;;;;5020962;28;20216;-61
2023/08/05 09:57:18;;;;;;;24.83;5.78;;;;;;;;;;5022004;28;20257;-61
2023/08/05 09:59:44;;;;;;;7.05;4.13;;;;;;;;;;5006322;28;20223;-61
2023/08/05 10:02:10;;;;;;;6.78;4.05;;;;;;;;;;5023344;28;20219;-61
2023/08/05 10:04:35;;;;;;;9.05;4.40;;;;;;;;;;5001942;28;20212;-61
2023/08/05 10:07:01;;;;;;;5.85;3.88;;;;;;;;;;5006278;28;20203;-61
2023/08/05 10:09:26;;;;;;;10.32;3.55;;;;;;;;;;5006763;28;20633;-61
2023/08/05 10:11:51;;;;;;;18.20;4.20;;;;;;;;;;5022050;28;20224;-61
2023/08/05 10:14:17;;;;;;;10.93;4.18;;;;;;;;;;5009307;28;20203;-61
2023/08/05 10:16:42;;;;;;;23.20;4.68;;;;;;;;;;5028454;28;20215;-61
2023/08/05 10:19:08;;;;;;;11.45;4.28;;;;;;;;;;5007612;28;20216;-61
2023/08/05 10:21:34;;;;;;;7.65;3.40;;;;;;;;;;5007957;28;20243;-61
2023/08/05 10:24:01;;;;;;;6.15;2.90;;;;;;;;;;5027437;28;20231;-61
2023/08/05 10:26:36;;;;;;;21.63;3.95;;;;;;;;;;5027114;28;20207;-61
2023/08/05 10:29:02;;;;;;;7.82;3.35;;;;;;;;;;5023011;28;20242;-62
2023/08/05 10:31:28;;;;;;;35.63;5.10;;;;;;;;;;5009505;28;20208;-62
2023/08/05 10:34:06;;;;;;;10.93;3.03;;;;;;;;;;5027706;28;20208;-61
2023/08/05 10:36:48;;;;;;;16.27;3.08;;;;;;;;;;5026361;28;20211;-61
2023/08/05 10:39:32;;;;;;;31.55;4.85;;;;;;;;;;5022284;28;20216;-61
2023/08/05 10:41:57;;;;;;;5.05;2.40;;;;;;;;;;5025830;28;20350;-61
2023/08/05 10:44:34;;;;;;;14.00;2.53;;;;;;;;;;5026866;28;20644;-61
2023/08/05 10:47:02;;;;;;;3.38;2.33;;;;;;;;;;5030318;28;20217;-62
2023/08/05 10:49:27;;;;;;;8.18;2.95;;;;;;;;;;5017207;28;20235;-62
2023/08/05 10:51:53;;;;;;;10.43;2.60;;;;;;;;;;5026432;28;20604;-61
2023/08/05 10:54:18;;;;;;;4.90;2.70;;;;;;;;;;5006147;28;20608;-61
2023/08/05 10:56:43;;;;;;;6.40;2.50;;;;;;;;;;5010142;28;20215;-62
2023/08/05 10:59:09;;;;;;;8.20;2.75;;;;;;;;;;5024407;28;20238;-61
2023/08/05 11:01:53;;;;;;;6.35;2.33;;;;;;;;;;5022538;28;20223;-62
2023/08/05 11:04:26;;;;;;;35.75;4.50;;;;;;;;;;5011726;28;20301;-61
2023/08/05 11:06:51;;;;;;;12.30;2.65;;;;;;;;;;5027357;28;20261;-61
2023/08/05 11:09:16;;;;;;;13.10;2.60;;;;;;;;;;5024609;28;20224;-61
2023/08/05 11:11:42;;;;;;;10.10;2.95;;;;;;;;;;5023587;28;20227;-61
2023/08/05 11:14:07;;;;;;;6.03;2.45;;;;;;;;;;5008999;28;20299;-61
2023/08/05 11:16:32;;;;;;;7.20;2.90;;;;;;;;;;5027104;28;20269;-61
2023/08/05 11:18:58;;;;;;;7.72;2.78;;;;;;;;;;5021878;28;20216;-61
2023/08/05 11:21:24;;;;;;;7.55;2.78;;;;;;;;;;5026835;28;20215;-61
2023/08/05 11:23:49;;;;;;;4.85;2.60;;;;;;;;;;5026309;28;20215;-61
2023/08/05 11:26:14;;;;;;;5.72;2.70;;;;;;;;;;5023445;28;20218;-61
2023/08/05 11:28:42;;;;;;;8.40;2.70;;;;;;;;;;5025012;28;20255;-61
2023/08/05 11:31:07;;;;;;;3.78;2.30;;;;;;;;;;5025292;28;20220;-61
2023/08/05 11:33:33;;;;;;;7.68;2.50;;;;;;;;;;5025931;28;20227;-61
2023/08/05 11:35:58;;;;;;;11.45;3.20;;;;;;;;;;5022928;28;20220;-61
2023/08/05 11:38:24;;;;;;;5.10;2.53;;;;;;;;;;5025009;28;20307;-61
2023/08/05 11:40:55;;;;;;;10.93;2.60;;;;;;;;;;5026730;28;20576;-61
2023/08/05 11:43:21;;;;;;;4.28;2.00;;;;;;;;;;5021720;28;20326;-61
2023/08/05 11:45:47;;;;;;;6.72;2.30;;;;;;;;;;5025819;28;21145;-61
2023/08/05 11:48:19;;;;;;;4.50;2.33;;;;;;;;;;5018907;28;20270;-61
2023/08/05 11:50:44;;;;;;;22.13;3.17;;;;;;;;;;5024982;28;20212;-61
2023/08/05 11:53:10;;;;;;;4.53;2.17;;;;;;;;;;5021107;28;20216;-61
2023/08/05 11:55:35;;;;;;;5.65;2.50;;;;;;;;;;5025926;28;20223;-61
2023/08/05 11:58:02;;;;;;;4.03;2.30;;;;;;;;;;5024924;28;20702;-61
2023/08/05 12:00:27;;;;;;;3.13;2.13;;;;;;;;;;5021371;28;20216;-61
2023/08/05 12:02:53;;;;;;;3.20;2.30;;;;;;;;;;5025691;28;20276;-61
2023/08/05 12:05:18;;;;;;;4.70;2.28;;;;;;;;;;5025322;28;20222;-61
2023/08/05 12:07:43;;;;;;;7.88;2.90;;;;;;;;;;5022984;28;20298;-61
2023/08/05 12:10:10;;;;;;;16.42;2.97;;;;;;;;;;5017410;28;20735;-62
2023/08/05 12:12:35;;;;;;;6.55;2.30;;;;;;;;;;5025705;28;20217;-61
2023/08/05 12:15:07;;;;;;;5.78;2.63;;;;;;;;;;5024925;28;20341;-62
2023/08/05 12:17:33;;;;;;;10.80;3.70;;;;;;;;;;5021219;28;20219;-63
2023/08/05 12:19:58;;;;;;;14.32;5.38;;;;;;;;;;5016920;28;20224;-63
2023/08/05 12:22:23;;;;;;;12.82;5.07;;;;;;;;;;5024523;28;20265;-62
2023/08/05 12:24:49;;;;;;;8.07;2.63;;;;;;;;;;5021425;28;20235;-62
2023/08/05 12:27:15;;;;;;;7.45;1.52;;;;;;;;;;5023260;28;20261;-62
2023/08/05 12:29:41;;;;;;;19.92;2.60;;;;;;;;;;5023255;28;20244;-62
2023/08/05 12:32:06;;;;;;;2.78;1.10;;;;;;;;;;5023949;28;20293;-62
2023/08/05 12:34:31;;;;;;;5.55;1.23;;;;;;;;;;5021249;28;20242;-61
2023/08/05 12:36:57;;;;;;;4.45;1.70;;;;;;;;;;5025147;28;20221;-61
2023/08/05 12:39:22;;;;;;;6.38;2.00;;;;;;;;;;5024809;28;20208;-61
2023/08/05 12:41:47;;;;;;;17.50;2.70;;;;;;;;;;5021039;28;20278;-61
2023/08/05 12:44:13;;;;;;;3.70;2.25;;;;;;;;;;5022179;28;20211;-61
2023/08/05 12:46:38;;;;;;;4.55;2.78;;;;;;;;;;5011761;28;20884;-61
2023/08/05 12:49:03;;;;;;;4.25;2.72;;;;;;;;;;5017491;28;20228;-61
2023/08/05 12:51:29;;;;;;;4.90;2.90;;;;;;;;;;4997396;28;20291;-61
2023/08/05 12:53:54;;;;;;;5.07;2.95;;;;;;;;;;4998197;28;20209;-61
2023/08/05 12:56:19;;;;;;;5.60;2.83;;;;;;;;;;4998460;28;20209;-61
2023/08/05 12:58:45;;;;;;;4.25;3.08;;;;;;;;;;5005011;28;20311;-61
2023/08/05 13:01:10;;;;;;;5.30;2.92;;;;;;;;;;5005892;28;20302;-61
2023/08/05 13:03:35;;;;;;;5.07;2.95;;;;;;;;;;5006305;28;20303;-61
2023/08/05 13:06:01;;;;;;;4.45;3.15;;;;;;;;;;5005920;28;20227;-62
2023/08/05 13:08:26;;;;;;;6.93;3.67;;;;;;;;;;5005776;28;20224;-61
2023/08/05 13:10:53;;;;;;;5.88;3.55;;;;;;;;;;5006531;28;20251;-61
2023/08/05 13:13:18;;;;;;;15.80;4.07;;;;;;;;;;5001583;28;20205;-61
2023/08/05 13:15:44;;;;;;;13.65;4.05;;;;;;;;;;4998929;28;20531;-61
2023/08/05 13:18:09;;;;;;;6.50;4.40;;;;;;;;;;4998368;28;20212;-61
2023/08/05 13:20:35;;;;;;;6.05;3.97;;;;;;;;;;5003648;28;20245;-61
2023/08/05 13:23:00;;;;;;;7.50;4.80;;;;;;;;;;5005162;28;20244;-61
2023/08/05 13:25:25;;;;;;;6.95;4.75;;;;;;;;;;5003937;28;20213;-61
2023/08/05 13:27:51;;;;;;;8.20;5.10;;;;;;;;;;5005630;28;20216;-62
2023/08/05 13:30:16;;;;;;;6.78;4.90;;;;;;;;;;5006214;28;20224;-61
2023/08/05 13:32:41;;;;;;;6.65;5.00;;;;;;;;;;5005923;28;20250;-61
2023/08/05 13:35:07;;;;;;;8.40;4.75;;;;;;;;;;5004013;28;20220;-62
2023/08/05 13:37:33;;;;;;;27.35;6.30;;;;;;;;;;4997565;28;20226;-61
2023/08/05 13:39:59;;;;;;;8.10;5.50;;;;;;;;;;4998128;28;20715;-61
2023/08/05 13:42:24;;;;;;;8.25;5.78;;;;;;;;;;4998527;28;20208;-61
2023/08/05 13:44:49;;;;;;;7.82;5.70;;;;;;;;;;5006013;28;20231;-61
2023/08/05 13:47:15;;;;;;;9.45;5.82;;;;;;;;;;5004626;28;20214;-61
2023/08/05 13:49:40;;;;;;;9.38;5.70;;;;;;;;;;5005877;28;20563;-61
2023/08/05 13:52:06;;;;;;;8.60;6.28;;;;;;;;;;5006329;28;20212;-61
2023/08/05 13:54:31;;;;;;;6.70;5.93;;;;;;;;;;5005817;28;20212;-61
2023/08/05 13:56:56;;;;;;;6.82;5.25;;;;;;;;;;5005100;28;20267;-61
2023/08/05 13:59:22;;;;;;;8.52;5.70;;;;;;;;;;4999034;28;20231;-61
2023/08/05 14:01:47;;;;;;;15.23;4.90;;;;;;;;;;4998003;28;20216;-61
2023/08/05 14:04:12;;;;;;;5.85;3.55;;;;;;;;;;4998709;28;20303;-61
2023/08/05 14:06:38;;;;;;;9.82;3.42;;;;;;;;;;5004109;28;20212;-61
2023/08/05 14:09:05;;;;;;;4.47;2.72;;;;;;;;;;4987180;28;20323;-61
2023/08/05 14:11:31;;;;;;;6.90;3.38;;;;;;;;;;5005137;28;20224;-61
2023/08/05 14:13:56;;;;;;;7.72;3.42;;;;;;;;;;5005843;28;20239;-61
2023/08/05 14:16:21;;;;;;;8.07;3.92;;;;;;;;;;5004582;28;20570;-61
2023/08/05 14:18:47;;;;;;;6.88;4.43;;;;;;;;;;5001879;28;20219;-61
2023/08/05 14:21:12;;;;;;;6.55;4.32;;;;;;;;;;5000689;28;20251;-61
2023/08/05 14:23:37;;;;;;;6.53;4.18;;;;;;;;;;4998963;28;21321;-61
2023/08/05 14:26:03;;;;;;;8.07;4.47;;;;;;;;;;4997105;28;20216;-61
2023/08/05 14:28:28;;;;;;;8.40;4.22;;;;;;;;;;5001575;28;20216;-61
2023/08/05 14:30:54;;;;;;;7.38;3.80;;;;;;;;;;5005188;28;20828;-61
2023/08/05 14:33:19;;;;;;;7.32;3.80;;;;;;;;;;5004338;28;20219;-61